Time;durP1;ratioP1;P1;durP2;ratioP2;P2;SDS_P1;SDS_P2;PMS_P1;PMS_P2;Temp;Humidity;BMP_temperature;BMP_pressure;BME280_temperature;BME280_humidity;BME280_pressure;Samples;Min_cycle;Max_cycle;Signal;HPM_P1;HPM_P2
2021/08/31 00:01:11;;;;;;;;;;;;;;;19.21;64.63;101383.84;4972405;28;96982;-72
2021/08/31 00:03:37;;;;;;;;;;;;;;;18.99;65.11;101386.97;4972418;28;97093;-76
2021/08/31 00:06:05;;;;;;;;;;;;;;;18.85;65.82;101397.63;4972166;28;98897;-74
2021/08/31 00:08:31;;;;;;;;;;;;;;;19.52;63.58;101388.19;4971308;28;98886;-74
2021/08/31 00:10:57;;;;;;;;;;;;;;;19.41;63.82;101387.03;4970730;28;96912;-74
2021/08/31 00:13:24;;;;;;;;;;;;;;;19.70;62.78;101393.25;4971356;28;96771;-74
2021/08/31 00:15:50;;;;;;;;;;;;;;;19.77;62.69;101393.72;4970012;28;99337;-74
2021/08/31 00:18:16;;;;;;;;;;;;;;;20.02;61.63;101399.25;4970730;28;99183;-74
2021/08/31 00:20:42;;;;;;;;;;;;;;;20.16;61.07;101401.91;4971864;28;96782;-74
2021/08/31 00:23:10;;;;;;;;;;;;;;;19.58;62.60;101393.19;4971903;28;96927;-74
2021/08/31 00:25:36;;;;;;;;;;;;;;;19.50;63.12;101394.50;4974730;28;98920;-74
2021/08/31 00:28:03;;;;;;;;;;;;;;;19.68;62.36;101383.63;4970132;28;98916;-74
2021/08/31 00:30:29;;;;;;;;;;;;;;;19.52;63.13;101377.47;4972131;28;98650;-73
2021/08/31 00:32:55;;;;;;;;;;;;;;;19.72;62.35;101388.66;4973873;28;97128;-73
2021/08/31 00:35:21;;;;;;;;;;;;;;;19.56;62.74;101389.75;4974408;28;98749;-74
2021/08/31 00:37:48;;;;;;;;;;;;;;;19.84;62.33;101384.34;4970719;28;99257;-73
2021/08/31 00:40:15;;;;;;;;;;;;;;;19.65;62.38;101379.28;4973826;28;97909;-74
2021/08/31 00:42:42;;;;;;;;;;;;;;;18.98;65.02;101385.25;4972052;28;98558;-74
2021/08/31 00:45:08;;;;;;;;;;;;;;;19.22;64.60;101385.59;4974041;28;99237;-73
2021/08/31 00:47:35;;;;;;;;;;;;;;;19.58;63.00;101379.78;4965595;28;98804;-73
2021/08/31 00:50:01;;;;;;;;;;;;;;;19.61;62.52;101388.50;4972427;28;97023;-74
2021/08/31 00:52:28;;;;;;;;;;;;;;;19.52;63.17;101388.19;4971159;28;97724;-74
2021/08/31 00:54:54;;;;;;;;;;;;;;;19.56;63.47;101387.91;4973652;28;99281;-73
2021/08/31 00:57:22;;;;;;;;;;;;;;;19.73;62.73;101390.41;4974219;28;98778;-74
2021/08/31 00:59:48;;;;;;;;;;;;;;;19.62;63.28;101378.63;4975045;28;96969;-74
2021/08/31 01:02:15;;;;;;;;;;;;;;;19.86;61.99;101390.47;4974252;28;97027;-74
2021/08/31 01:04:41;;;;;;;;;;;;;;;19.35;63.81;101398.13;4971768;28;97890;-73
2021/08/31 01:07:09;;;;;;;;;;;;;;;19.44;63.65;101392.19;4975012;28;98137;-73
2021/08/31 01:09:36;;;;;;;;;;;;;;;19.35;64.31;101387.41;4972081;28;96941;-73
2021/08/31 01:12:03;;;;;;;;;;;;;;;19.41;64.36;101387.03;4972753;28;96877;-73
2021/08/31 01:14:31;;;;;;;;;;;;;;;19.62;63.13;101390.22;4971900;28;98986;-73
2021/08/31 01:16:57;;;;;;;;;;;;;;;19.55;63.07;101382.66;4964985;28;100041;-74
2021/08/31 01:19:29;;;;;;;;;;;;;;;18.67;66.32;101391.56;4964475;28;97284;-74
2021/08/31 01:21:58;;;;;;;;;;;;;;;19.31;64.85;101380.50;4972994;28;97338;-74
2021/08/31 01:24:24;;;;;;;;;;;;;;;19.35;64.10;101383.88;4973006;28;98807;-74
2021/08/31 01:26:52;;;;;;;;;;;;;;;19.82;62.50;101380.91;4973944;28;99359;-74
2021/08/31 01:29:18;;;;;;;;;;;;;;;19.66;63.08;101386.38;4970519;28;97039;-74
2021/08/31 01:31:44;;;;;;;;;;;;;;;19.77;62.81;101383.88;4973272;28;97170;-72
2021/08/31 01:34:10;;;;;;;;;;;;;;;19.63;63.00;101386.56;4971908;28;98850;-74
2021/08/31 01:36:37;;;;;;;;;;;;;;;19.72;62.49;101385.13;4972245;28;98795;-73
2021/08/31 01:39:05;;;;;;;;;;;;;;;19.11;64.68;101389.75;4973346;28;96971;-72
2021/08/31 01:41:32;;;;;;;;;;;;;;;19.43;63.32;101393.13;4972438;28;97224;-74
2021/08/31 01:44:00;;;;;;;;;;;;;;;19.61;63.07;101390.31;4973388;28;99048;-73
2021/08/31 01:46:26;;;;;;;;;;;;;;;19.18;64.35;101395.59;4973806;28;99187;-73
2021/08/31 01:48:52;;;;;;;;;;;;;;;18.76;65.90;101403.56;4976391;28;96962;-74
2021/08/31 01:51:19;;;;;;;;;;;;;;;18.95;65.26;101410.41;4975124;28;96937;-73
2021/08/31 01:53:45;;;;;;;;;;;;;;;18.93;65.48;101406.09;4975607;28;99892;-73
2021/08/31 01:56:11;;;;;;;;;;;;;;;19.02;65.03;101395.69;4977273;28;98086;-74
2021/08/31 01:58:40;;;;;;;;;;;;;;;19.29;63.26;101398.50;4979742;28;96673;-74
2021/08/31 02:01:07;;;;;;;;;;;;;;;19.03;64.34;101402.75;4979840;28;97104;-72
2021/08/31 02:03:34;;;;;;;;;;;;;;;19.06;63.99;101401.72;4975974;28;99542;-73
2021/08/31 02:06:00;;;;;;;;;;;;;;;19.04;64.75;101387.53;4977535;28;99147;-73
2021/08/31 02:08:26;;;;;;;;;;;;;;;19.25;63.64;101386.25;4974055;28;98685;-74
2021/08/31 02:10:53;;;;;;;;;;;;;;;18.84;65.47;101401.28;4975272;28;97995;-74
2021/08/31 02:13:19;;;;;;;;;;;;;;;18.87;65.27;101391.25;4977224;28;98927;-74
2021/08/31 02:15:45;;;;;;;;;;;;;;;18.47;66.82;101386.47;4975096;28;97772;-73
2021/08/31 02:18:13;;;;;;;;;;;;;;;19.00;65.16;101388.69;4972574;28;96922;-73
2021/08/31 02:20:39;;;;;;;;;;;;;;;19.02;64.85;101389.47;4973943;28;98386;-73
2021/08/31 02:23:06;;;;;;;;;;;;;;;18.73;66.20;101395.69;4975818;28;97968;-73
2021/08/31 02:25:32;;;;;;;;;;;;;;;18.97;65.32;101391.56;4976210;28;98844;-74
2021/08/31 02:27:58;;;;;;;;;;;;;;;18.57;66.68;101391.25;4977066;28;96817;-73
2021/08/31 02:30:24;;;;;;;;;;;;;;;18.67;67.35;101389.75;4972537;28;97369;-73
2021/08/31 02:32:51;;;;;;;;;;;;;;;18.93;65.80;101381.97;4970182;28;99132;-74
2021/08/31 02:35:19;;;;;;;;;;;;;;;18.96;65.62;101390.72;4964518;28;98886;-74
2021/08/31 02:37:46;;;;;;;;;;;;;;;18.78;66.30;101386.44;4964912;28;97008;-73
2021/08/31 02:40:12;;;;;;;;;;;;;;;18.90;65.74;101388.41;4962406;28;97301;-74
2021/08/31 02:42:38;;;;;;;;;;;;;;;18.95;65.28;101383.63;4972025;28;99400;-74
2021/08/31 02:45:05;;;;;;;;;;;;;;;18.99;65.48;101385.16;4969339;28;98854;-73
2021/08/31 02:47:31;;;;;;;;;;;;;;;18.96;65.47;101384.50;4972840;28;97087;-73
2021/08/31 02:49:58;;;;;;;;;;;;;;;19.36;64.35;101396.31;4967948;28;97194;-74
2021/08/31 02:52:25;;;;;;;;;;;;;;;19.15;64.53;101393.13;4969903;28;98984;-73
2021/08/31 02:54:51;;;;;;;;;;;;;;;18.80;66.39;101399.72;4968835;28;100252;-74
2021/08/31 02:57:18;;;;;;;;;;;;;;;18.55;66.67;101395.84;4973060;28;96959;-73
2021/08/31 02:59:44;;;;;;;;;;;;;;;19.13;64.63;101392.34;4970708;28;97391;-72
2021/08/31 03:02:10;;;;;;;;;;;;;;;19.18;64.22;101395.59;4971981;28;98789;-74
2021/08/31 03:04:37;;;;;;;;;;;;;;;19.14;64.66;101383.38;4967305;28;99470;-74
2021/08/31 03:07:04;;;;;;;;;;;;;;;18.94;65.12;101383.72;4973584;28;96736;-73
2021/08/31 03:09:32;;;;;;;;;;;;;;;18.83;65.85;101391.53;4971810;28;97131;-73
2021/08/31 03:11:58;;;;;;;;;;;;;;;18.91;65.55;101387.41;4970529;28;98100;-73
2021/08/31 03:14:24;;;;;;;;;;;;;;;19.38;63.80;101386.34;4971560;28;99152;-73
2021/08/31 03:16:50;;;;;;;;;;;;;;;18.83;65.78;101388.84;4972066;28;97292;-73
2021/08/31 03:19:17;;;;;;;;;;;;;;;18.39;67.03;101405.66;4968795;28;98721;-73
2021/08/31 03:21:44;;;;;;;;;;;;;;;18.32;67.80;101399.78;4969733;28;98987;-73
2021/08/31 03:24:10;;;;;;;;;;;;;;;18.82;65.96;101388.00;4968203;28;99009;-74
2021/08/31 03:26:38;;;;;;;;;;;;;;;18.94;65.22;101400.63;4972744;28;96740;-73
2021/08/31 03:29:04;;;;;;;;;;;;;;;18.75;66.13;101394.66;4969722;28;97070;-74
2021/08/31 03:31:30;;;;;;;;;;;;;;;18.81;65.52;101406.81;4969865;28;99222;-73
2021/08/31 03:33:56;;;;;;;;;;;;;;;19.10;64.47;101408.59;4971054;28;99237;-73
2021/08/31 03:36:23;;;;;;;;;;;;;;;18.82;65.11;101406.72;4972284;28;96944;-73
2021/08/31 03:38:49;;;;;;;;;;;;;;;19.00;64.81;101419.03;4971373;28;97036;-74
2021/08/31 03:41:15;;;;;;;;;;;;;;;18.98;65.14;101412.03;4968185;28;99254;-74
2021/08/31 03:43:43;;;;;;;;;;;;;;;19.47;63.50;101407.25;4971112;28;98690;-74
2021/08/31 03:46:09;;;;;;;;;;;;;;;19.30;64.24;101412.75;4971899;28;97018;-74
2021/08/31 03:48:35;;;;;;;;;;;;;;;19.64;62.84;101419.59;4968517;28;96883;-73
2021/08/31 03:51:01;;;;;;;;;;;;;;;19.67;62.76;101417.59;4970588;28;99096;-73
2021/08/31 03:53:28;;;;;;;;;;;;;;;19.61;62.75;101411.75;4968824;28;99271;-74
2021/08/31 03:55:54;;;;;;;;;;;;;;;19.19;64.53;101413.41;4971806;28;97436;-74
2021/08/31 03:58:20;;;;;;;;;;;;;;;19.26;63.61;101409.41;4975852;28;96740;-73
2021/08/31 04:00:48;;;;;;;;;;;;;;;19.31;64.36;101415.34;4973473;28;98959;-73
2021/08/31 04:03:14;;;;;;;;;;;;;;;19.05;64.56;101424.97;4973956;28;98808;-72
2021/08/31 04:05:40;;;;;;;;;;;;;;;19.28;63.73;101417.34;4974510;28;96826;-74
2021/08/31 04:08:06;;;;;;;;;;;;;;;19.25;64.14;101423.75;4974031;28;97165;-74
2021/08/31 04:10:33;;;;;;;;;;;;;;;19.14;64.08;101433.41;4974017;28;97577;-74
2021/08/31 04:12:59;;;;;;;;;;;;;;;19.33;63.23;101432.19;4973778;28;98799;-73
2021/08/31 04:15:25;;;;;;;;;;;;;;;19.64;62.39;101433.00;4974744;28;96806;-73
2021/08/31 04:17:53;;;;;;;;;;;;;;;19.18;63.40;101426.88;4975735;28;96887;-74
2021/08/31 04:20:19;;;;;;;;;;;;;;;19.42;63.03;101431.63;4979374;28;99022;-73
2021/08/31 04:22:46;;;;;;;;;;;;;;;19.16;63.69;101428.81;4975057;28;99058;-74
2021/08/31 04:25:12;;;;;;;;;;;;;;;19.22;63.24;101434.66;4976389;28;96766;-74
2021/08/31 04:27:38;;;;;;;;;;;;;;;19.52;62.41;101441.81;4972726;28;98922;-74
2021/08/31 04:30:05;;;;;;;;;;;;;;;19.34;62.51;101430.38;4973058;28;98903;-74
2021/08/31 04:32:31;;;;;;;;;;;;;;;18.74;64.69;101438.44;4973216;28;98809;-72
2021/08/31 04:35:02;;;;;;;;;;;;;;;18.93;64.12;101439.09;4974754;28;96841;-73
2021/08/31 04:37:29;;;;;;;;;;;;;;;19.38;62.58;101440.81;4973903;28;97582;-73
2021/08/31 04:39:55;;;;;;;;;;;;;;;19.18;63.43;101434.94;4973914;28;98906;-73
2021/08/31 04:42:21;;;;;;;;;;;;;;;19.10;63.70;101438.06;4973144;28;98909;-74
2021/08/31 04:44:47;;;;;;;;;;;;;;;18.71;65.26;101442.16;4975263;28;96908;-74
2021/08/31 04:47:15;;;;;;;;;;;;;;;19.08;63.53;101437.31;4971947;28;97045;-73
2021/08/31 04:49:41;;;;;;;;;;;;;;;19.09;63.45;101436.38;4973689;28;98837;-73
2021/08/31 04:52:09;;;;;;;;;;;;;;;18.77;64.28;101435.59;4973504;28;98766;-73
2021/08/31 04:54:35;;;;;;;;;;;;;;;18.82;64.11;101427.28;4972766;28;96753;-73
2021/08/31 04:57:01;;;;;;;;;;;;;;;18.90;64.19;101433.94;4973374;28;97013;-73
2021/08/31 04:59:28;;;;;;;;;;;;;;;19.10;63.49;101435.38;4973656;28;98943;-73
2021/08/31 05:01:55;;;;;;;;;;;;;;;19.00;63.25;101439.59;4971326;28;98762;-72
2021/08/31 05:04:27;;;;;;;;;;;;;;;18.95;63.64;101436.31;4973797;28;97375;-73
2021/08/31 05:06:53;;;;;;;;;;;;;;;18.91;64.05;101440.13;4970817;28;97700;-73
2021/08/31 05:09:21;;;;;;;;;;;;;;;19.16;62.92;101443.09;4968927;28;98921;-72
2021/08/31 05:11:47;;;;;;;;;;;;;;;19.26;62.71;101441.56;4969219;28;99256;-73
2021/08/31 05:14:14;;;;;;;;;;;;;;;19.45;61.82;101443.97;4973827;28;97081;-73
2021/08/31 05:16:40;;;;;;;;;;;;;;;19.07;62.85;101443.63;4971863;28;96924;-73
2021/08/31 05:19:06;;;;;;;;;;;;;;;18.76;64.38;101443.72;4970668;28;100804;-74
2021/08/31 05:21:32;;;;;;;;;;;;;;;18.63;64.37;101451.59;4972063;28;98772;-74
2021/08/31 05:23:59;;;;;;;;;;;;;;;18.59;65.19;101448.22;4975013;28;96972;-74
2021/08/31 05:26:27;;;;;;;;;;;;;;;18.45;65.39;101436.53;4972971;28;98303;-73
2021/08/31 05:28:53;;;;;;;;;;;;;;;18.97;63.49;101440.63;4972242;28;99278;-74
2021/08/31 05:31:19;;;;;;;;;;;;;;;18.63;64.99;101439.09;4971632;28;98979;-72
2021/08/31 05:33:45;;;;;;;;;;;;;;;18.85;64.31;101438.66;4972659;28;96795;-73
2021/08/31 05:36:12;;;;;;;;;;;;;;;19.01;63.55;101438.63;4972000;28;98601;-73
2021/08/31 05:38:38;;;;;;;;;;;;;;;19.41;61.97;101442.44;4971927;28;99362;-74
2021/08/31 05:41:04;;;;;;;;;;;;;;;19.28;62.47;101445.00;4963378;28;98898;-73
2021/08/31 05:43:32;;;;;;;;;;;;;;;19.52;61.43;101447.16;4972168;28;96832;-73
2021/08/31 05:45:58;;;;;;;;;;;;;;;19.38;61.96;101443.47;4971355;28;98722;-74
2021/08/31 05:48:25;;;;;;;;;;;;;;;19.07;62.91;101446.28;4968879;28;99144;-75
2021/08/31 05:50:51;;;;;;;;;;;;;;;19.00;63.48;101451.16;4972637;28;98226;-74
2021/08/31 05:53:17;;;;;;;;;;;;;;;18.95;63.17;101449.72;4970275;28;98357;-74
2021/08/31 05:55:43;;;;;;;;;;;;;;;18.49;65.25;101455.03;4972297;28;97936;-73
2021/08/31 05:58:10;;;;;;;;;;;;;;;19.01;63.02;101454.69;4969788;28;99352;-74
2021/08/31 06:00:37;;;;;;;;;;;;;;;19.00;62.85;101456.50;4967402;28;98830;-73
2021/08/31 06:03:03;;;;;;;;;;;;;;;19.15;62.76;101448.53;4963695;28;96812;-73
2021/08/31 06:05:30;;;;;;;;;;;;;;;18.88;63.61;101454.56;4969993;28;96985;-73
2021/08/31 06:07:56;;;;;;;;;;;;;;;18.71;64.22;101463.56;4966748;28;99209;-73
2021/08/31 06:10:22;;;;;;;;;;;;;;;18.58;64.78;101459.00;4970752;28;98907;-73
2021/08/31 06:12:48;;;;;;;;;;;;;;;18.54;64.24;101468.13;4970732;28;97053;-73
2021/08/31 06:15:15;;;;;;;;;;;;;;;18.56;64.68;101471.63;4969228;28;96812;-74
2021/08/31 06:17:42;;;;;;;;;;;;;;;19.04;62.69;101463.41;4966539;28;100978;-74
2021/08/31 06:20:10;;;;;;;;;;;;;;;19.09;62.83;101460.47;4965006;28;97758;-74
2021/08/31 06:22:36;;;;;;;;;;;;;;;18.85;63.68;101467.25;4966397;28;96863;-75
2021/08/31 06:25:03;;;;;;;;;;;;;;;19.15;62.35;101459.25;4965573;28;97054;-74
2021/08/31 06:27:29;;;;;;;;;;;;;;;19.07;62.43;101467.72;4964294;28;98944;-74
2021/08/31 06:29:55;;;;;;;;;;;;;;;19.46;61.13;101467.19;4964704;28;98806;-74
2021/08/31 06:32:21;;;;;;;;;;;;;;;19.14;62.36;101461.06;4964758;28;97405;-74
2021/08/31 06:34:49;;;;;;;;;;;;;;;19.32;61.67;101473.34;4964402;28;96954;-74
2021/08/31 06:37:15;;;;;;;;;;;;;;;19.13;62.86;101470.03;4966342;28;99164;-73
2021/08/31 06:39:41;;;;;;;;;;;;;;;18.86;63.79;101468.97;4962661;28;99214;-73
2021/08/31 06:42:08;;;;;;;;;;;;;;;19.02;63.39;101472.50;4965212;28;97426;-74
2021/08/31 06:44:34;;;;;;;;;;;;;;;18.80;64.00;101480.06;4964198;28;97459;-72
2021/08/31 06:47:00;;;;;;;;;;;;;;;18.79;63.57;101479.19;4965101;28;99056;-75
2021/08/31 06:49:27;;;;;;;;;;;;;;;18.88;63.94;101480.47;4954153;28;99532;-73
2021/08/31 06:51:54;;;;;;;;;;;;;;;18.94;63.34;101478.31;4963406;28;97926;-74
2021/08/31 06:54:20;;;;;;;;;;;;;;;18.95;63.29;101477.34;4964411;28;98744;-73
2021/08/31 06:56:47;;;;;;;;;;;;;;;19.27;62.24;101483.47;4964073;28;99378;-73
2021/08/31 06:59:13;;;;;;;;;;;;;;;18.92;63.30;101487.38;4964963;28;98829;-74
2021/08/31 07:01:39;;;;;;;;;;;;;;;19.19;62.69;101487.56;4965836;28;97344;-73
2021/08/31 07:04:05;;;;;;;;;;;;;;;19.23;62.56;101495.31;4963563;28;98152;-73
2021/08/31 07:06:32;;;;;;;;;;;;;;;19.05;63.02;101496.41;4965029;28;98979;-74
2021/08/31 07:08:59;;;;;;;;;;;;;;;19.37;61.68;101498.03;4963336;28;98790;-75
2021/08/31 07:11:26;;;;;;;;;;;;;;;19.06;62.70;101499.00;4965795;28;97116;-75
2021/08/31 07:13:52;;;;;;;;;;;;;;;19.16;62.59;101503.84;4962983;28;97423;-75
2021/08/31 07:16:18;;;;;;;;;;;;;;;19.62;60.92;101499.28;4964926;28;100172;-74
2021/08/31 07:18:44;;;;;;;;;;;;;;;19.92;60.06;101496.50;4954381;28;98901;-73
2021/08/31 07:21:11;;;;;;;;;;;;;;;19.98;60.24;101504.16;4967978;28;97180;-73
2021/08/31 07:23:37;;;;;;;;;;;;;;;19.76;60.41;101508.19;4967726;28;96924;-73
2021/08/31 07:26:05;;;;;;;;;;;;;;;20.69;57.93;101508.50;4967875;28;99537;-73
2021/08/31 07:28:31;;;;;;;;;;;;;;;20.69;57.51;101518.38;4966862;28;98893;-73
2021/08/31 07:30:58;;;;;;;;;;;;;;;21.13;56.37;101523.50;4964801;28;96816;-73
2021/08/31 07:33:25;;;;;;;;;;;;;;;20.77;57.68;101526.78;4970122;28;97704;-75
2021/08/31 07:35:51;;;;;;;;;;;;;;;21.24;56.10;101525.47;4975074;28;98293;-74
2021/08/31 07:38:17;;;;;;;;;;;;;;;21.01;56.70;101527.84;4969865;28;98815;-73
2021/08/31 07:40:44;;;;;;;;;;;;;;;20.49;57.76;101518.78;4970227;28;97455;-74
2021/08/31 07:43:11;;;;;;;;;;;;;;;20.60;57.55;101521.66;4971378;28;96990;-73
2021/08/31 07:45:38;;;;;;;;;;;;;;;21.03;56.78;101533.13;4967398;28;98999;-73
2021/08/31 07:48:05;;;;;;;;;;;;;;;21.27;55.88;101528.81;4972581;28;99501;-73
2021/08/31 07:50:31;;;;;;;;;;;;;;;21.57;55.02;101527.69;4970355;28;97016;-75
2021/08/31 07:52:57;;;;;;;;;;;;;;;21.42;55.61;101534.97;4972979;28;98864;-72
2021/08/31 07:55:24;;;;;;;;;;;;;;;21.00;56.31;101536.03;4971540;28;99337;-72
2021/08/31 07:57:50;;;;;;;;;;;;;;;21.52;55.32;101533.41;4971287;28;99167;-73
2021/08/31 08:00:18;;;;;;;;;;;;;;;21.25;55.85;101532.59;4971561;28;96892;-72
2021/08/31 08:02:44;;;;;;;;;;;;;;;21.90;54.33;101532.53;4966585;28;102555;-72
2021/08/31 08:05:11;;;;;;;;;;;;;;;22.29;52.90;101535.13;4967684;28;98996;-74
2021/08/31 08:07:37;;;;;;;;;;;;;;;22.10;53.12;101532.91;4977786;28;98804;-72
2021/08/31 08:10:04;;;;;;;;;;;;;;;21.94;53.68;101545.66;4969536;28;97060;-72
2021/08/31 08:12:30;;;;;;;;;;;;;;;21.24;55.46;101538.91;4963251;28;96829;-73
2021/08/31 08:14:57;;;;;;;;;;;;;;;21.63;54.17;101544.25;4971336;28;99182;-73
2021/08/31 08:17:24;;;;;;;;;;;;;;;21.84;54.02;101532.03;4973353;28;99360;-73
2021/08/31 08:19:51;;;;;;;;;;;;;;;21.68;54.02;101531.34;4972219;28;97721;-73
2021/08/31 08:22:18;;;;;;;;;;;;;;;21.52;54.76;101536.09;4976306;28;99044;-74
2021/08/31 08:24:44;;;;;;;;;;;;;;;21.81;53.78;101532.22;4964101;28;98267;-73
2021/08/31 08:27:11;;;;;;;;;;;;;;;21.07;55.45;101540.88;4967142;28;99086;-75
2021/08/31 08:29:38;;;;;;;;;;;;;;;21.41;55.24;101539.50;4967191;28;98681;-74
2021/08/31 08:32:05;;;;;;;;;;;;;;;22.04;53.31;101546.78;4970613;28;97355;-73
2021/08/31 08:34:32;;;;;;;;;;;;;;;22.35;52.43;101547.28;4965716;28;99312;-74
2021/08/31 08:36:59;;;;;;;;;;;;;;;21.35;54.52;101550.66;4967092;28;99090;-74
2021/08/31 08:39:26;;;;;;;;;;;;;;;21.00;56.21;101555.66;4962582;28;97329;-73
2021/08/31 08:41:52;;;;;;;;;;;;;;;20.94;55.92;101553.38;4969174;28;97051;-74
2021/08/31 08:44:18;;;;;;;;;;;;;;;20.48;57.33;101558.19;4971990;28;98938;-74
2021/08/31 08:46:46;;;;;;;;;;;;;;;20.46;57.22;101564.66;4968736;28;97742;-73
2021/08/31 08:49:16;;;;;;;;;;;;;;;20.76;56.39;101572.53;4969432;28;97754;-73
2021/08/31 08:51:44;;;;;;;;;;;;;;;20.74;56.47;101555.69;4965760;28;97142;-73
2021/08/31 08:54:14;;;;;;;;;;;;;;;20.78;56.22;101554.50;4971672;28;98976;-74
2021/08/31 08:56:40;;;;;;;;;;;;;;;21.08;55.27;101558.72;4967576;28;99033;-73
2021/08/31 08:59:06;;;;;;;;;;;;;;;21.28;54.75;101557.41;4969950;28;97173;-73
2021/08/31 09:01:40;;;;;;;;;;;;;;;21.16;54.90;101558.25;4967997;28;96896;-73
2021/08/31 09:04:06;;;;;;;;;;;;;;;22.27;52.61;101554.06;4966856;28;98916;-73
2021/08/31 09:06:32;;;;;;;;;;;;;;;22.72;50.92;101549.00;4968792;28;99170;-75
2021/08/31 09:09:01;;;;;;;;;;;;;;;22.02;52.50;101561.31;4966697;28;99845;-73
2021/08/31 09:11:29;;;;;;;;;;;;;;;22.30;52.31;101547.63;4967169;28;97003;-74
2021/08/31 09:14:10;;;;;;;;;;;;;;;22.88;50.70;101552.34;4969031;28;99126;-72
2021/08/31 09:16:38;;;;;;;;;;;;;;;22.58;51.45;101558.09;4971839;28;98871;-73
2021/08/31 09:19:04;;;;;;;;;;;;;;;22.65;51.24;101556.69;4970083;28;96979;-74
2021/08/31 09:21:30;;;;;;;;;;;;;;;22.37;51.97;101551.59;4972065;28;98532;-73
2021/08/31 09:23:58;;;;;;;;;;;;;;;22.88;50.83;101546.94;4974953;28;99152;-74
2021/08/31 09:26:40;;;;;;;;;;;;;;;22.67;50.45;101557.44;4970825;28;99490;-74
2021/08/31 09:29:19;;;;;;;;;;;;;;;22.03;52.88;101557.66;4967208;28;97796;-73
2021/08/31 09:31:46;;;;;;;;;;;;;;;22.32;52.72;101559.13;4968206;28;96991;-74
2021/08/31 09:34:27;;;;;;;;;;;;;;;22.86;51.39;101564.19;4968952;28;98983;-74
2021/08/31 09:36:54;;;;;;;;;;;;;;;22.25;51.99;101569.47;4970884;28;98891;-72
2021/08/31 09:39:28;;;;;;;;;;;;;;;21.77;53.39;101571.06;4972662;28;96970;-73
2021/08/31 09:41:56;;;;;;;;;;;;;;;21.24;54.89;101573.88;4978122;28;98735;-74
2021/08/31 09:44:23;;;;;;;;;;;;;;;21.87;53.85;101576.66;4979864;28;98921;-73
2021/08/31 09:46:53;;;;;;;;;;;;;;;22.17;52.00;101573.69;4972993;28;99275;-73
2021/08/31 09:49:20;;;;;;;;;;;;;;;22.75;50.72;101578.47;4969320;28;97434;-74
2021/08/31 09:52:03;;;;;;;;;;;;;;;23.09;49.53;101574.13;4971934;28;97374;-73
2021/08/31 09:54:30;;;;;;;;;;;;;;;22.89;50.17;101580.16;4969964;28;99105;-74
2021/08/31 09:56:57;;;;;;;;;;;;;;;22.60;50.52;101579.53;4968309;28;98751;-73
2021/08/31 09:59:24;;;;;;;;;;;;;;;22.04;51.63;101592.53;4961074;28;96990;-74
2021/08/31 10:01:53;;;;;;;;;;;;;;;22.58;51.04;101576.94;4970835;28;97056;-73
2021/08/31 10:04:19;;;;;;;;;;;;;;;23.19;49.16;101580.53;4969215;28;99041;-73
2021/08/31 10:06:45;;;;;;;;;;;;;;;22.75;50.12;101567.69;4972480;28;99880;-73
2021/08/31 10:09:12;;;;;;;;;;;;;;;23.17;49.14;101590.56;4967077;28;96945;-73
2021/08/31 10:11:38;;;;;;;;;;;;;;;22.82;49.83;101589.66;4964306;28;97069;-74
2021/08/31 10:14:09;;;;;;;;;;;;;;;22.57;50.42;101591.41;4971529;28;118522;-74
2021/08/31 10:16:38;;;;;;;;;;;;;;;22.47;50.67;101589.47;4963787;28;97273;-74
2021/08/31 10:19:06;;;;;;;;;;;;;;;22.61;50.42;101592.91;4968423;28;98351;-74
2021/08/31 10:21:32;;;;;;;;;;;;;;;22.33;50.86;101590.47;4972476;28;96984;-74
2021/08/31 10:23:58;;;;;;;;;;;;;;;22.45;50.94;101591.44;4971567;28;98970;-74
2021/08/31 10:26:26;;;;;;;;;;;;;;;22.91;49.90;101597.03;4971990;28;99004;-74
2021/08/31 10:28:53;;;;;;;;;;;;;;;23.23;48.92;101590.16;4972869;28;96867;-75
2021/08/31 10:31:29;;;;;;;;;;;;;;;23.28;48.73;101581.69;4973505;28;96938;-74
2021/08/31 10:33:56;;;;;;;;;;;;;;;23.34;48.72;101590.19;4972893;28;99364;-73
2021/08/31 10:36:35;;;;;;;;;;;;;;;23.17;48.73;101587.88;4971608;28;98801;-73
2021/08/31 10:39:03;;;;;;;;;;;;;;;23.32;48.79;101594.81;4970731;28;96983;-75
2021/08/31 10:41:42;;;;;;;;;;;;;;;23.20;49.54;101590.34;4972236;28;97262;-75
2021/08/31 10:44:09;;;;;;;;;;;;;;;23.15;49.37;101602.47;4972292;28;99074;-74
2021/08/31 10:46:59;;;;;;;;;;;;;;;22.68;50.57;101604.09;4973565;28;99156;-73
2021/08/31 10:49:27;;;;;;;;;;;;;;;22.78;49.96;101604.31;4946355;28;97300;-73
2021/08/31 10:52:04;;;;;;;;;;;;;;;22.29;50.58;101609.66;4971453;28;96987;-73
2021/08/31 10:54:43;;;;;;;;;;;;;;;22.45;50.26;101613.81;4967220;28;99042;-73
2021/08/31 10:57:24;;;;;;;;;;;;;;;23.38;48.10;101621.31;4966997;28;98172;-74
2021/08/31 10:59:50;;;;;;;;;;;;;;;22.87;49.51;101609.03;4969848;28;97328;-74
2021/08/31 11:02:49;;;;;;;;;;;;;;;23.01;49.05;101612.44;4970397;28;97036;-74
2021/08/31 11:05:37;;;;;;;;;;;;;;;23.33;47.96;101618.13;4973426;28;99136;-74
2021/08/31 11:08:14;;;;;;;;;;;;;;;23.09;48.92;101614.56;4966925;28;98848;-74
2021/08/31 11:10:42;;;;;;;;;;;;;;;22.12;50.69;101613.53;4969370;28;96906;-74
2021/08/31 11:13:09;;;;;;;;;;;;;;;21.94;51.19;101626.41;4969838;28;97604;-74
2021/08/31 11:15:36;;;;;;;;;;;;;;;22.24;51.22;101627.00;4971458;28;98907;-74
2021/08/31 11:18:07;;;;;;;;;;;;;;;23.22;48.11;101618.06;4970898;28;99126;-74
2021/08/31 11:20:34;;;;;;;;;;;;;;;23.11;48.22;101620.69;4969387;28;96956;-74
2021/08/31 11:23:07;;;;;;;;;;;;;;;23.80;46.82;101621.78;4968112;28;97055;-74
2021/08/31 11:25:37;;;;;;;;;;;;;;;24.28;45.77;101621.66;4969896;28;97839;-75
2021/08/31 11:28:04;;;;;;;;;;;;;;;24.22;45.55;101620.28;4971089;28;98848;-74
2021/08/31 11:30:48;;;;;;;;;;;;;;;24.07;45.69;101629.56;4971984;28;96843;-75
2021/08/31 11:33:17;;;;;;;;;;;;;;;24.10;46.25;101632.00;4967740;28;97275;-73
2021/08/31 11:35:43;;;;;;;;;;;;;;;24.04;45.22;101646.84;4966263;28;99112;-75
2021/08/31 11:38:10;;;;;;;;;;;;;;;23.49;46.46;101646.69;4971679;28;98797;-73
2021/08/31 11:40:39;;;;;;;;;;;;;;;23.67;45.74;101642.59;4973398;28;97079;-74
2021/08/31 11:43:05;;;;;;;;;;;;;;;23.26;46.67;101638.44;4970117;28;97014;-73
2021/08/31 11:45:35;;;;;;;;;;;;;;;23.01;47.36;101644.78;4972432;28;98965;-74
2021/08/31 11:48:02;;;;;;;;;;;;;;;22.64;48.40;101648.41;4970318;28;98869;-73
2021/08/31 11:50:28;;;;;;;;;;;;;;;23.41;46.59;101645.38;4968951;28;96843;-73
2021/08/31 11:52:54;;;;;;;;;;;;;;;22.71;48.32;101654.22;4969964;28;97742;-74
2021/08/31 11:55:28;;;;;;;;;;;;;;;23.48;46.14;101647.66;4968529;28;98988;-72
2021/08/31 11:58:05;;;;;;;;;;;;;;;23.25;46.66;101652.03;4964018;28;99979;-73
2021/08/31 12:00:41;;;;;;;;;;;;;;;23.84;45.65;101664.59;4968194;28;97060;-74
2021/08/31 12:03:21;;;;;;;;;;;;;;;24.12;44.72;101659.75;4971768;28;96915;-73
2021/08/31 12:05:47;;;;;;;;;;;;;;;23.93;44.61;101660.34;4967827;28;98930;-74
2021/08/31 12:08:14;;;;;;;;;;;;;;;23.60;45.11;101660.22;4968016;28;99267;-72
2021/08/31 12:10:41;;;;;;;;;;;;;;;22.72;47.22;101670.25;4970821;28;98599;-72
2021/08/31 12:13:08;;;;;;;;;;;;;;;23.05;46.40;101670.53;4970096;28;96986;-73
2021/08/31 12:15:35;;;;;;;;;;;;;;;23.08;46.10;101668.59;4977668;28;99282;-72
2021/08/31 12:18:03;;;;;;;;;;;;;;;22.90;47.23;101658.19;4976838;28;97773;-72
2021/08/31 12:20:29;;;;;;;;;;;;;;;23.61;45.22;101670.03;4973402;28;96817;-73
2021/08/31 12:23:01;;;;;;;;;;;;;;;23.69;45.07;101681.97;4973375;28;96897;-73
2021/08/31 12:25:27;;;;;;;;;;;;;;;23.22;45.61;101655.81;4971935;28;99685;-74
2021/08/31 12:27:55;;;;;;;;;;;;;;;23.27;45.05;101659.03;4967599;28;100279;-74
2021/08/31 12:30:35;;;;;;;;;;;;;;;23.31;45.23;101663.22;4971171;28;97093;-73
2021/08/31 12:33:02;;;;;;;;;;;;;;;23.82;43.96;101671.09;4967648;28;97002;-74
2021/08/31 12:35:32;;;;;;;;;;;;;;;24.23;43.07;101670.59;4974790;28;97776;-72
2021/08/31 12:38:05;;;;;;;;;;;;;;;23.91;44.70;101667.69;4969746;28;98215;-73